Grand Prairie, TX

6:42 PM CDT on September 03, 2015 (GMT -0500)
North Central | | Change Station
CLOSE
Current Station
Personal Weather Station
Location: Grand Prairie, TX
Elevation: 480 ft
Nearby Weather Stations

Elev 480 ft 32.76 °N, 97.02 °W | Updated 8 seconds ago

Clear
Clear
93.0 °F
Feels Like 91 °F
N
0.0
Wind Variable Wind from North
Gusts 0.0 mph

Today
High -- | Low -- °F
--% Chance of Precip.
Yesterday
High -- | Low -- °F
Precip. -- in
7:03 AM 7:50 PM
Waning Gibbous, 66% visible
Pressure 29.87 in
Visibility 10.0 miles
Clouds Clear
Heat Index 91 °F
Dew Point 56 °F
Humidity 29%
Rainfall 0.00 in
Snow Depth Not available.
UV 2 out of 12
Pollen 9.80 out of 12
Air Quality Not available.
Flu Activity Not available.
METAR KGPM 032250Z 08008KT 10SM SKC 33/18 A2987
Pressure 29.87 in
Visibility 10.0 miles
Clouds Clear
Heat Index 91 °F
Dew Point 56 °F
Humidity 29%
Rainfall 0.00 in
Snow Depth Not available.
UV 2 out of 12
Pollen 9.80 out of 12
Air Quality Not available.
Flu Activity Not available.
METAR KGPM 032250Z 08008KT 10SM SKC 33/18 A2987
Nowcast | as of 5:55 PM CDT on September 3, 2015

Isolated showers will continue over the next one to two hours mainly for areas along and southeast of a Killeen to Waco to Canton line. A few rumbles of thunder will also be possible. The main hazards with thunderstorms...should they develop...will be gusty winds and occasional cloud to ground lightning. Rain amounts should remain light with totals generally under one quarter of an inch. Otherwise...hot conditions will continue over the next several hours with temperatures in the low to mid 90s.

×

10-Day Weather Forecast

×

Almanac

Astronomy

Sep. 03, 2015 Rise Set
Actual Time
Civil Twilight
Nautical Twilight
Astronomical Twilight
Moon
Length of Visible Light
Length of Day
Tomorrow will be .
, % of the Moon is Illuminated

Today's Extremes

State Highs State Lows

Community

WunderPhotos

Upload Photos

1,852,063 photos uploaded!

WunderBlogs® & News

Nearby

Air Quality

  Air Quality AQ Index Pollutant
Not available.

Snow Depth

Station Depth Elevation

Earthquake Activity

City Distance Mag. Time & Date
Minimum magnitude displayed is 2.5.

Coastal Water Temperatures

Place Temperature

Stations

Nearby Weather Stations

Station Location Temp. Windchill Dew Point Humidity Wind Precip. Elev Updated Type